createdAt,value
2023-01-20T00:01:14.529Z,-0.20
2023-01-20T00:03:42.606Z,-0.20
2023-01-20T00:06:09.817Z,-0.10
2023-01-20T00:08:36.732Z,-0.10
2023-01-20T00:11:12.089Z,-0.10
2023-01-20T00:13:39.690Z,-0.10
2023-01-20T00:16:09.160Z,-0.10
2023-01-20T00:18:36.465Z,-0.10
2023-01-20T00:21:11.689Z,-0.10
2023-01-20T00:23:38.929Z,-0.10
2023-01-20T00:26:07.269Z,-0.10
2023-01-20T00:28:35.252Z,-0.10
2023-01-20T00:31:18.617Z,-0.10
2023-01-20T00:33:46.840Z,0.00
2023-01-20T00:36:14.930Z,0.00
2023-01-20T00:38:42.355Z,0.00
2023-01-20T00:41:10.019Z,0.00
2023-01-20T00:43:37.524Z,0.00
2023-01-20T00:46:05.262Z,0.00
2023-01-20T00:48:32.818Z,0.00
2023-01-20T00:50:59.947Z,0.00
2023-01-20T00:53:26.973Z,0.10
2023-01-20T00:55:53.848Z,0.10
2023-01-20T00:58:20.600Z,0.10
2023-01-20T01:00:48.418Z,0.10
2023-01-20T01:03:15.568Z,0.10
2023-01-20T01:05:42.917Z,0.20
2023-01-20T01:08:09.751Z,0.20
2023-01-20T01:10:36.493Z,0.20
2023-01-20T01:13:04.277Z,0.20
2023-01-20T01:15:31.155Z,0.20
2023-01-20T01:17:59.219Z,0.20
2023-01-20T01:20:27.051Z,0.10
2023-01-20T01:22:53.833Z,0.10
2023-01-20T01:25:20.833Z,0.10
2023-01-20T01:27:47.630Z,0.10
2023-01-20T01:30:14.406Z,0.10
2023-01-20T01:32:41.120Z,0.10
2023-01-20T01:35:08.225Z,0.10
2023-01-20T01:37:34.972Z,0.10
2023-01-20T01:40:01.785Z,0.00
2023-01-20T01:42:28.853Z,0.00
2023-01-20T01:45:11.292Z,0.00
2023-01-20T01:47:44.388Z,0.00
2023-01-20T01:50:21.124Z,0.00
2023-01-20T01:52:51.041Z,0.00
2023-01-20T01:55:19.117Z,0.00
2023-01-20T01:57:47.456Z,0.00
2023-01-20T02:00:14.551Z,0.00
2023-01-20T02:02:43.602Z,-0.10
2023-01-20T02:05:12.560Z,-0.10
2023-01-20T02:07:40.375Z,-0.10
2023-01-20T02:10:07.447Z,-0.20
2023-01-20T02:12:34.371Z,-0.20
2023-01-20T02:15:02.823Z,-0.30
2023-01-20T02:17:34.084Z,-0.30
2023-01-20T02:20:27.877Z,-0.30
2023-01-20T02:23:13.362Z,-0.40
2023-01-20T02:25:43.180Z,-0.40
2023-01-20T02:28:15.561Z,-0.40
2023-01-20T02:30:54.200Z,-0.40
2023-01-20T02:33:31.659Z,-0.40
2023-01-20T02:36:22.890Z,-0.40
2023-01-20T02:39:00.984Z,-0.40
2023-01-20T02:42:00.287Z,-0.40
2023-01-20T02:44:48.156Z,-0.30
2023-01-20T02:47:24.478Z,-0.30
2023-01-20T02:49:54.946Z,-0.30
2023-01-20T02:52:26.797Z,-0.30
2023-01-20T02:54:58.409Z,-0.30
2023-01-20T02:57:33.013Z,-0.20
2023-01-20T03:00:08.074Z,-0.30
2023-01-20T03:02:37.505Z,-0.20
2023-01-20T03:05:21.006Z,-0.20
2023-01-20T03:07:49.536Z,-0.20
2023-01-20T03:10:20.490Z,-0.20
2023-01-20T03:12:54.359Z,-0.20
2023-01-20T03:15:25.901Z,-0.10
2023-01-20T03:17:52.733Z,-0.10
2023-01-20T03:20:19.519Z,-0.10
2023-01-20T03:22:46.273Z,0.00
2023-01-20T03:25:14.479Z,0.00
2023-01-20T03:27:42.483Z,0.00
2023-01-20T03:30:13.965Z,0.00
2023-01-20T03:32:44.169Z,0.00
2023-01-20T03:35:11.242Z,0.10
2023-01-20T03:37:38.072Z,0.00
2023-01-20T03:40:05.512Z,0.10
2023-01-20T03:42:41.670Z,0.00
2023-01-20T03:45:26.580Z,0.00
2023-01-20T03:48:12.989Z,0.00
2023-01-20T03:50:44.114Z,0.00
2023-01-20T03:53:13.998Z,0.00
2023-01-20T03:55:51.906Z,-0.10
2023-01-20T03:58:26.129Z,-0.10
2023-01-20T04:00:53.328Z,-0.10
2023-01-20T04:03:25.237Z,-0.10
2023-01-20T04:05:52.469Z,-0.20
2023-01-20T04:08:24.456Z,-0.20
2023-01-20T04:10:52.894Z,-0.20
2023-01-20T04:13:19.675Z,-0.20
2023-01-20T04:15:46.851Z,-0.20
2023-01-20T04:18:21.870Z,-0.20
2023-01-20T04:20:52.332Z,-0.30
2023-01-20T04:23:31.649Z,-0.30
2023-01-20T04:25:58.384Z,-0.40
2023-01-20T04:28:25.989Z,-0.40
2023-01-20T04:30:52.934Z,-0.40
2023-01-20T04:33:19.690Z,-0.40
2023-01-20T04:35:46.420Z,-0.40
2023-01-20T04:38:13.130Z,-0.40
2023-01-20T04:40:39.904Z,-0.40
2023-01-20T04:43:06.632Z,-0.40
2023-01-20T04:45:33.402Z,-0.40
2023-01-20T04:48:00.145Z,-0.50
2023-01-20T04:50:26.853Z,-0.50
2023-01-20T04:52:56.692Z,-0.50
2023-01-20T04:55:23.410Z,-0.40
2023-01-20T04:57:50.209Z,-0.40
2023-01-20T05:00:20.036Z,-0.40
2023-01-20T05:02:47.221Z,-0.40
2023-01-20T05:05:14.565Z,-0.40
2023-01-20T05:07:41.453Z,-0.40
2023-01-20T05:10:08.740Z,-0.40
2023-01-20T05:12:36.421Z,-0.40
2023-01-20T05:15:03.364Z,-0.40
2023-01-20T05:17:30.107Z,-0.30
2023-01-20T05:19:56.837Z,-0.30
2023-01-20T05:22:23.988Z,-0.30
2023-01-20T05:24:50.720Z,-0.30
2023-01-20T05:27:17.414Z,-0.40
2023-01-20T05:29:44.178Z,-0.30
2023-01-20T05:32:11.083Z,-0.30
2023-01-20T05:34:37.812Z,-0.30
2023-01-20T05:37:04.510Z,-0.30
2023-01-20T05:39:31.190Z,-0.30
2023-01-20T05:41:57.929Z,-0.20
2023-01-20T05:44:24.712Z,-0.20
2023-01-20T05:46:51.421Z,-0.20
2023-01-20T05:49:18.173Z,-0.30
2023-01-20T05:51:44.913Z,-0.30
2023-01-20T05:54:11.648Z,-0.30
2023-01-20T05:56:38.404Z,-0.20
2023-01-20T05:59:06.192Z,-0.30
2023-01-20T06:01:33.001Z,-0.30
2023-01-20T06:03:59.848Z,-0.30
2023-01-20T06:06:26.834Z,-0.30
2023-01-20T06:08:53.635Z,-0.30
2023-01-20T06:11:20.767Z,-0.30
2023-01-20T06:13:48.573Z,-0.30
2023-01-20T06:16:17.557Z,-0.30
2023-01-20T06:18:44.614Z,-0.30
2023-01-20T06:21:11.711Z,-0.30
2023-01-20T06:23:38.727Z,-0.30
2023-01-20T06:26:06.684Z,-0.40
2023-01-20T06:28:34.040Z,-0.40
2023-01-20T06:31:07.083Z,-0.50
2023-01-20T06:33:34.519Z,-0.50
2023-01-20T06:36:01.909Z,-0.60
2023-01-20T06:38:30.980Z,-0.60
2023-01-20T06:41:10.457Z,-0.60
2023-01-20T06:43:40.176Z,-0.70
2023-01-20T06:46:09.897Z,-0.70
2023-01-20T06:48:37.082Z,-0.80
2023-01-20T06:51:06.020Z,-0.80
2023-01-20T06:53:33.076Z,-0.90
2023-01-20T06:56:01.617Z,-0.90
2023-01-20T06:58:30.696Z,-0.90
2023-01-20T07:00:59.071Z,-1.00
2023-01-20T07:03:25.868Z,-1.00
2023-01-20T07:06:00.024Z,-1.00
2023-01-20T07:08:27.076Z,-1.00
2023-01-20T07:10:53.830Z,-1.00
2023-01-20T07:13:20.563Z,-1.00
2023-01-20T07:15:47.257Z,-1.00
2023-01-20T07:18:14.073Z,-1.00
2023-01-20T07:20:40.815Z,-1.10
2023-01-20T07:23:07.599Z,-1.10
2023-01-20T07:25:34.364Z,-1.00
2023-01-20T07:28:01.089Z,-1.00
2023-01-20T07:30:27.842Z,-1.00
2023-01-20T07:32:54.603Z,-1.00
2023-01-20T07:35:21.402Z,-0.90
2023-01-20T07:37:48.097Z,-0.90
2023-01-20T07:40:14.889Z,-0.90
2023-01-20T07:42:41.905Z,-0.80
2023-01-20T07:45:08.986Z,-0.80
2023-01-20T07:47:35.737Z,-0.70
2023-01-20T07:50:02.485Z,-0.70
2023-01-20T07:52:29.181Z,-0.70
2023-01-20T07:54:55.849Z,-0.60
2023-01-20T07:57:22.564Z,-0.60
2023-01-20T07:59:49.301Z,-0.60
2023-01-20T08:02:16.127Z,-0.50
2023-01-20T08:04:43.171Z,-0.50
2023-01-20T08:07:09.861Z,-0.50
2023-01-20T08:09:36.601Z,-0.50
2023-01-20T08:12:03.436Z,-0.40
2023-01-20T08:14:30.124Z,-0.30
2023-01-20T08:16:57.096Z,-0.30
2023-01-20T08:19:23.909Z,-0.20
2023-01-20T08:21:50.598Z,-0.20
2023-01-20T08:24:17.252Z,0.00
2023-01-20T08:26:44.002Z,0.10
2023-01-20T08:29:10.852Z,0.20
2023-01-20T08:31:38.149Z,0.30
2023-01-20T08:34:05.292Z,0.40
2023-01-20T08:36:36.036Z,0.50
2023-01-20T08:39:05.121Z,0.60
2023-01-20T08:41:35.185Z,0.70
2023-01-20T08:44:02.489Z,0.80
2023-01-20T08:46:29.232Z,0.90
2023-01-20T08:48:56.252Z,1.00
2023-01-20T08:51:27.233Z,1.10
2023-01-20T08:53:53.959Z,1.20
2023-01-20T08:56:21.579Z,1.20
2023-01-20T08:58:48.572Z,1.30
2023-01-20T09:01:20.973Z,1.30
2023-01-20T09:04:03.894Z,1.30
2023-01-20T09:06:44.248Z,1.30
2023-01-20T09:09:11.296Z,1.40
2023-01-20T09:11:39.409Z,1.40
2023-01-20T09:14:06.529Z,1.40
2023-01-20T09:16:33.268Z,1.40
2023-01-20T09:18:59.991Z,1.40
2023-01-20T09:21:26.793Z,1.50
2023-01-20T09:23:53.578Z,1.50
2023-01-20T09:26:34.651Z,1.50
2023-01-20T09:29:09.210Z,1.50
2023-01-20T09:31:38.402Z,1.50
2023-01-20T09:34:05.249Z,1.50
2023-01-20T09:36:32.032Z,1.60
2023-01-20T09:39:17.343Z,1.60
2023-01-20T09:42:06.947Z,1.70
2023-01-20T09:44:56.523Z,1.80
2023-01-20T09:47:36.005Z,2.00
2023-01-20T09:50:24.321Z,2.20
2023-01-20T09:53:04.670Z,2.20
2023-01-20T09:55:53.292Z,2.20
2023-01-20T09:58:45.146Z,2.20
2023-01-20T10:01:36.566Z,2.20
2023-01-20T10:04:12.455Z,2.10
2023-01-20T10:06:57.453Z,2.20
2023-01-20T10:09:32.734Z,2.20
2023-01-20T10:12:30.911Z,2.20
2023-01-20T10:15:09.458Z,2.30
2023-01-20T10:17:44.014Z,2.30
2023-01-20T10:20:29.886Z,2.30
2023-01-20T10:23:16.312Z,2.30
2023-01-20T10:26:06.065Z,2.40
2023-01-20T10:28:38.238Z,2.40
2023-01-20T10:31:05.644Z,2.50
2023-01-20T10:33:38.828Z,2.60
2023-01-20T10:36:12.984Z,2.70
2023-01-20T10:39:04.405Z,2.70
2023-01-20T10:41:31.079Z,2.70
2023-01-20T10:43:59.626Z,2.80
2023-01-20T10:46:40.812Z,2.90
2023-01-20T10:49:29.145Z,3.00
2023-01-20T10:52:22.207Z,3.10
2023-01-20T10:54:59.132Z,3.40
2023-01-20T10:57:26.369Z,3.60
2023-01-20T10:59:57.364Z,3.70
2023-01-20T11:02:31.430Z,3.80
2023-01-20T11:05:00.177Z,3.60
2023-01-20T11:07:28.781Z,3.40
2023-01-20T11:09:55.681Z,3.30
2023-01-20T11:12:27.178Z,3.20
2023-01-20T11:14:55.824Z,3.20
2023-01-20T11:17:22.629Z,3.20
2023-01-20T11:19:53.703Z,3.30
2023-01-20T11:22:31.076Z,3.40
2023-01-20T11:25:04.087Z,3.60
2023-01-20T11:27:45.919Z,3.90
2023-01-20T11:30:33.843Z,4.10
2023-01-20T11:33:15.732Z,4.30
2023-01-20T11:36:06.621Z,4.20
2023-01-20T11:38:45.240Z,4.20
2023-01-20T11:41:23.883Z,4.00
2023-01-20T11:43:55.912Z,4.00
2023-01-20T11:46:33.736Z,4.10
2023-01-20T11:49:26.749Z,4.20
2023-01-20T11:51:55.710Z,4.00
2023-01-20T11:54:28.419Z,3.90
2023-01-20T11:57:10.325Z,4.00
2023-01-20T11:59:46.599Z,3.90
2023-01-20T12:02:13.362Z,4.00
2023-01-20T12:04:56.347Z,4.00
2023-01-20T12:07:44.615Z,4.00
2023-01-20T12:10:25.757Z,3.90
2023-01-20T12:13:18.129Z,3.90
2023-01-20T12:15:52.937Z,3.90
2023-01-20T12:18:56.922Z,3.90
2023-01-20T12:21:34.659Z,3.90
2023-01-20T12:24:38.578Z,4.00
2023-01-20T12:27:20.572Z,4.10
2023-01-20T12:29:55.056Z,4.10
2023-01-20T12:32:21.905Z,4.20
2023-01-20T12:34:48.708Z,4.10
2023-01-20T12:37:21.598Z,4.10
2023-01-20T12:39:54.061Z,4.00
2023-01-20T12:42:20.761Z,4.00
2023-01-20T12:45:07.872Z,3.90
2023-01-20T12:47:46.632Z,3.80
2023-01-20T12:50:52.829Z,3.60
2023-01-20T12:53:25.324Z,3.40
2023-01-20T12:56:03.032Z,3.30
2023-01-20T12:59:06.680Z,3.30
2023-01-20T13:01:55.058Z,3.20
2023-01-20T13:04:40.387Z,3.00
2023-01-20T13:07:31.474Z,2.80
2023-01-20T13:10:04.097Z,2.60
2023-01-20T13:12:38.757Z,2.50
2023-01-20T13:15:17.461Z,2.30
2023-01-20T13:18:04.581Z,2.20
2023-01-20T13:20:31.570Z,2.20
2023-01-20T13:23:04.493Z,2.20
2023-01-20T13:25:32.468Z,2.30
2023-01-20T13:27:59.699Z,2.30
2023-01-20T13:30:57.461Z,2.30
2023-01-20T13:33:33.496Z,2.10
2023-01-20T13:36:13.419Z,2.00
2023-01-20T13:38:40.553Z,1.90
2023-01-20T13:41:08.468Z,1.90
2023-01-20T13:43:44.346Z,1.90
2023-01-20T13:46:17.481Z,1.80
2023-01-20T13:49:23.681Z,1.70
2023-01-20T13:51:50.475Z,1.60
2023-01-20T13:54:23.953Z,1.60
2023-01-20T13:56:51.784Z,1.50
2023-01-20T13:59:18.511Z,1.40
2023-01-20T14:01:45.254Z,1.30
2023-01-20T14:04:20.351Z,1.20
2023-01-20T14:06:49.501Z,1.10
2023-01-20T14:09:26.439Z,1.10
2023-01-20T14:11:55.801Z,1.10
2023-01-20T14:14:25.103Z,1.10
2023-01-20T14:16:51.981Z,1.10
2023-01-20T14:19:24.839Z,1.10
2023-01-20T14:21:54.762Z,1.10
2023-01-20T14:24:38.030Z,1.10
2023-01-20T14:27:27.098Z,1.20
2023-01-20T14:29:55.369Z,1.20
2023-01-20T14:32:37.050Z,1.30
2023-01-20T14:35:16.940Z,1.40
2023-01-20T14:37:44.349Z,1.40
2023-01-20T14:40:28.422Z,1.40
2023-01-20T14:43:02.476Z,1.30
2023-01-20T14:45:32.353Z,1.30
2023-01-20T14:48:01.350Z,1.30
2023-01-20T14:50:29.162Z,1.30
2023-01-20T14:52:56.248Z,1.20
2023-01-20T14:55:35.397Z,1.10
2023-01-20T14:58:18.924Z,1.10
2023-01-20T15:00:47.177Z,1.10
2023-01-20T15:03:21.878Z,1.10
2023-01-20T15:06:00.590Z,1.00
2023-01-20T15:08:57.011Z,1.00
2023-01-20T15:11:32.551Z,0.90
2023-01-20T15:14:02.294Z,0.90
2023-01-20T15:16:31.716Z,0.80
2023-01-20T15:19:13.957Z,0.80
2023-01-20T15:21:47.996Z,0.70
2023-01-20T15:24:23.798Z,0.60
2023-01-20T15:26:52.658Z,0.60
2023-01-20T15:29:39.624Z,0.60
2023-01-20T15:32:12.723Z,0.50
2023-01-20T15:34:39.436Z,0.50
2023-01-20T15:37:21.073Z,0.50
2023-01-20T15:39:47.891Z,0.50
2023-01-20T15:42:15.352Z,0.50
2023-01-20T15:44:42.113Z,0.50
2023-01-20T15:47:31.160Z,0.50
2023-01-20T15:49:58.684Z,0.50
2023-01-20T15:52:25.711Z,0.50
2023-01-20T15:54:52.466Z,0.40
2023-01-20T15:57:19.306Z,0.50
2023-01-20T15:59:46.118Z,0.40
2023-01-20T16:02:21.233Z,0.40
2023-01-20T16:04:48.029Z,0.40
2023-01-20T16:07:20.032Z,0.40
2023-01-20T16:09:47.010Z,0.40
2023-01-20T16:12:15.580Z,0.40
2023-01-20T16:14:43.046Z,0.40
2023-01-20T16:17:23.936Z,0.40
2023-01-20T16:19:51.313Z,0.50
2023-01-20T16:22:18.080Z,0.40
2023-01-20T16:24:44.990Z,0.50
2023-01-20T16:27:22.006Z,0.50
2023-01-20T16:29:49.363Z,0.50
2023-01-20T16:32:18.255Z,0.50
2023-01-20T16:34:46.402Z,0.50
2023-01-20T16:37:14.495Z,0.50
2023-01-20T16:39:41.368Z,0.50
2023-01-20T16:42:11.975Z,0.50
2023-01-20T16:44:39.000Z,0.50
2023-01-20T16:47:06.556Z,0.40
2023-01-20T16:49:33.279Z,0.40
2023-01-20T16:51:59.963Z,0.50
2023-01-20T16:54:26.697Z,0.40
2023-01-20T16:56:53.624Z,0.40
2023-01-20T16:59:20.411Z,0.50
2023-01-20T17:01:50.187Z,0.40
2023-01-20T17:04:16.971Z,0.40
2023-01-20T17:06:43.755Z,0.40
2023-01-20T17:09:11.508Z,0.40
2023-01-20T17:11:40.403Z,0.40
2023-01-20T17:14:09.403Z,0.40
2023-01-20T17:16:37.373Z,0.40
2023-01-20T17:19:04.938Z,0.40
2023-01-20T17:21:33.770Z,0.40
2023-01-20T17:24:03.593Z,0.40
2023-01-20T17:26:30.923Z,0.40
2023-01-20T17:29:03.018Z,0.40
2023-01-20T17:31:33.062Z,0.40
2023-01-20T17:33:59.728Z,0.40
2023-01-20T17:36:26.553Z,0.40
2023-01-20T17:38:53.244Z,0.40
2023-01-20T17:41:19.960Z,0.50
2023-01-20T17:43:46.788Z,0.50
2023-01-20T17:46:25.453Z,0.50
2023-01-20T17:48:52.188Z,0.50
2023-01-20T17:51:21.659Z,0.50
2023-01-20T17:53:49.227Z,0.60
2023-01-20T17:56:17.668Z,0.50
2023-01-20T17:58:46.138Z,0.50
2023-01-20T18:01:27.418Z,0.60
2023-01-20T18:03:55.680Z,0.60
2023-01-20T18:06:24.375Z,0.60
2023-01-20T18:08:56.221Z,0.50
2023-01-20T18:11:24.400Z,0.60
2023-01-20T18:13:55.044Z,0.60
2023-01-20T18:16:23.268Z,0.50
2023-01-20T18:18:50.506Z,0.50
2023-01-20T18:21:22.344Z,0.50
2023-01-20T18:23:50.748Z,0.60
2023-01-20T18:26:21.230Z,0.50
2023-01-20T18:28:48.863Z,0.60
2023-01-20T18:31:18.154Z,0.60
2023-01-20T18:33:50.420Z,0.60
2023-01-20T18:36:25.550Z,0.60
2023-01-20T18:38:57.979Z,0.60
2023-01-20T18:41:26.563Z,0.60
2023-01-20T18:43:53.581Z,0.60
2023-01-20T18:46:20.789Z,0.60
2023-01-20T18:48:48.946Z,0.60
2023-01-20T18:51:17.700Z,0.50
2023-01-20T18:53:45.970Z,0.50
2023-01-20T18:56:14.883Z,0.50
2023-01-20T18:58:49.628Z,0.50
2023-01-20T19:01:22.147Z,0.50
2023-01-20T19:03:50.402Z,0.50
2023-01-20T19:06:22.458Z,0.50
2023-01-20T19:08:49.821Z,0.40
2023-01-20T19:11:18.202Z,0.40
2023-01-20T19:13:46.816Z,0.40
2023-01-20T19:16:13.785Z,0.30
2023-01-20T19:18:42.180Z,0.30
2023-01-20T19:21:15.639Z,0.30
2023-01-20T19:23:43.049Z,0.30
2023-01-20T19:26:14.549Z,0.30
2023-01-20T19:28:41.451Z,0.30
2023-01-20T19:31:10.442Z,0.30
2023-01-20T19:33:37.723Z,0.30
2023-01-20T19:36:07.455Z,0.20
2023-01-20T19:38:37.344Z,0.20
2023-01-20T19:41:16.076Z,0.20
2023-01-20T19:43:43.413Z,0.20
2023-01-20T19:46:13.164Z,0.20
2023-01-20T19:48:40.957Z,0.20
2023-01-20T19:51:10.358Z,0.20
2023-01-20T19:53:37.564Z,0.20
2023-01-20T19:56:12.869Z,0.20
2023-01-20T19:58:40.403Z,0.30
2023-01-20T20:01:09.988Z,0.30
2023-01-20T20:03:37.675Z,0.30
2023-01-20T20:06:06.562Z,0.30
2023-01-20T20:08:36.230Z,0.30
2023-01-20T20:11:03.091Z,0.30
2023-01-20T20:13:29.779Z,0.30
2023-01-20T20:16:03.882Z,0.30
2023-01-20T20:18:30.788Z,0.30
2023-01-20T20:20:58.058Z,0.40
2023-01-20T20:23:25.367Z,0.30
2023-01-20T20:25:56.265Z,0.30
2023-01-20T20:28:27.584Z,0.30
2023-01-20T20:30:55.479Z,0.20
2023-01-20T20:33:23.974Z,0.30
2023-01-20T20:35:51.088Z,0.20
2023-01-20T20:38:17.815Z,0.20
2023-01-20T20:40:44.544Z,0.20
2023-01-20T20:43:11.232Z,0.20
2023-01-20T20:45:37.941Z,0.20
2023-01-20T20:48:04.917Z,0.20
2023-01-20T20:50:31.922Z,0.20
2023-01-20T20:52:59.125Z,0.30
2023-01-20T20:55:26.222Z,0.30
2023-01-20T20:57:52.953Z,0.30
2023-01-20T21:00:23.433Z,0.30
2023-01-20T21:02:50.318Z,0.30
2023-01-20T21:05:18.856Z,0.30
2023-01-20T21:07:46.160Z,0.30
2023-01-20T21:10:15.616Z,0.30
2023-01-20T21:12:43.981Z,0.30
2023-01-20T21:15:11.714Z,0.30
2023-01-20T21:17:39.556Z,0.30
2023-01-20T21:20:07.463Z,0.30
2023-01-20T21:22:34.551Z,0.30
2023-01-20T21:25:01.373Z,0.30
2023-01-20T21:27:28.117Z,0.30
2023-01-20T21:29:54.861Z,0.30
2023-01-20T21:32:21.605Z,0.30
2023-01-20T21:34:48.314Z,0.30
2023-01-20T21:37:15.091Z,0.30
2023-01-20T21:39:41.809Z,0.30
2023-01-20T21:42:09.102Z,0.20
2023-01-20T21:44:36.476Z,0.20
2023-01-20T21:47:07.573Z,0.20
2023-01-20T21:49:53.425Z,0.20
2023-01-20T21:52:41.283Z,0.20
2023-01-20T21:55:18.865Z,0.20
2023-01-20T21:57:55.250Z,0.20
2023-01-20T22:00:22.287Z,0.20
2023-01-20T22:02:49.671Z,0.20
2023-01-20T22:05:16.578Z,0.20
2023-01-20T22:07:43.352Z,0.20
2023-01-20T22:10:10.848Z,0.20
2023-01-20T22:12:37.632Z,0.20
2023-01-20T22:15:05.003Z,0.20
2023-01-20T22:17:32.472Z,0.20
2023-01-20T22:19:59.525Z,0.20
2023-01-20T22:22:26.227Z,0.10
2023-01-20T22:24:53.491Z,0.10
2023-01-20T22:27:20.279Z,0.10
2023-01-20T22:29:47.105Z,0.20
2023-01-20T22:32:14.175Z,0.20
2023-01-20T22:34:40.926Z,0.10
2023-01-20T22:37:07.631Z,0.10
2023-01-20T22:39:34.347Z,0.10
2023-01-20T22:42:01.087Z,0.10
2023-01-20T22:44:27.777Z,0.10
2023-01-20T22:46:54.512Z,0.10
2023-01-20T22:49:21.223Z,0.10
2023-01-20T22:51:47.993Z,0.10
2023-01-20T22:54:14.700Z,0.10
2023-01-20T22:56:41.403Z,0.10
2023-01-20T22:59:11.635Z,0.10
2023-01-20T23:01:38.353Z,0.10
2023-01-20T23:04:06.683Z,0.00
2023-01-20T23:06:35.195Z,0.00
2023-01-20T23:09:08.706Z,0.00
2023-01-20T23:11:40.093Z,0.00
2023-01-20T23:14:09.395Z,0.00
2023-01-20T23:16:36.674Z,0.00
2023-01-20T23:19:03.577Z,0.00
2023-01-20T23:21:30.301Z,0.00
2023-01-20T23:23:57.086Z,0.00
2023-01-20T23:26:26.529Z,0.00
2023-01-20T23:28:54.073Z,0.00
2023-01-20T23:31:22.779Z,0.00
2023-01-20T23:33:49.932Z,0.00
2023-01-20T23:36:20.433Z,0.00
2023-01-20T23:38:47.489Z,0.00
2023-01-20T23:41:15.351Z,0.00
2023-01-20T23:43:42.319Z,0.00
2023-01-20T23:46:09.759Z,0.00
2023-01-20T23:48:36.738Z,0.00
2023-01-20T23:51:06.005Z,-0.10
2023-01-20T23:53:36.166Z,-0.10
2023-01-20T23:56:04.026Z,0.00
2023-01-20T23:58:31.209Z,0.00
